sensor_id;sensor_type;location;lat;lon;timestamp;temperature;humidity
50947;DHT22;36955;47.416;7.716;2022-07-01T00:02:20;12.90;99.90
50947;DHT22;36955;47.416;7.716;2022-07-01T00:04:46;12.90;99.90
50947;DHT22;36955;47.416;7.716;2022-07-01T00:07:12;13.00;99.90
50947;DHT22;36955;47.416;7.716;2022-07-01T00:09:38;13.00;99.90
50947;DHT22;36955;47.416;7.716;2022-07-01T00:12:05;13.00;99.90
50947;DHT22;36955;47.416;7.716;2022-07-01T00:14:31;12.90;99.90
50947;DHT22;36955;47.416;7.716;2022-07-01T00:16:57;13.00;99.90
50947;DHT22;36955;47.416;7.716;2022-07-01T00:19:23;13.10;99.90
50947;DHT22;36955;47.416;7.716;2022-07-01T00:21:50;13.20;99.90
50947;DHT22;36955;47.416;7.716;2022-07-01T00:24:16;13.20;99.90
50947;DHT22;36955;47.416;7.716;2022-07-01T00:26:42;13.20;99.90
50947;DHT22;36955;47.416;7.716;2022-07-01T00:29:08;13.30;99.90
50947;DHT22;36955;47.416;7.716;2022-07-01T00:31:34;13.40;99.90
50947;DHT22;36955;47.416;7.716;2022-07-01T00:34:00;13.20;99.90
50947;DHT22;36955;47.416;7.716;2022-07-01T00:36:26;13.20;99.90
50947;DHT22;36955;47.416;7.716;2022-07-01T00:38:52;13.30;99.90
50947;DHT22;36955;47.416;7.716;2022-07-01T00:41:18;13.30;99.90
50947;DHT22;36955;47.416;7.716;2022-07-01T00:43:44;13.30;99.90
50947;DHT22;36955;47.416;7.716;2022-07-01T00:46:11;13.30;99.90
50947;DHT22;36955;47.416;7.716;2022-07-01T00:48:37;13.30;99.90
50947;DHT22;36955;47.416;7.716;2022-07-01T00:51:04;13.20;99.90
50947;DHT22;36955;47.416;7.716;2022-07-01T00:53:31;13.20;99.90
50947;DHT22;36955;47.416;7.716;2022-07-01T00:55:57;13.10;99.90
50947;DHT22;36955;47.416;7.716;2022-07-01T00:58:26;13.00;99.90
50947;DHT22;36955;47.416;7.716;2022-07-01T01:00:53;12.80;99.90
50947;DHT22;36955;47.416;7.716;2022-07-01T01:03:19;12.70;99.90
50947;DHT22;36955;47.416;7.716;2022-07-01T01:05:45;12.70;99.90
50947;DHT22;36955;47.416;7.716;2022-07-01T01:08:11;12.60;99.90
50947;DHT22;36955;47.416;7.716;2022-07-01T01:10:37;12.50;99.90
50947;DHT22;36955;47.416;7.716;2022-07-01T01:13:04;12.50;99.90
50947;DHT22;36955;47.416;7.716;2022-07-01T01:15:31;12.40;99.90
50947;DHT22;36955;47.416;7.716;2022-07-01T01:17:57;12.40;99.90
50947;DHT22;36955;47.416;7.716;2022-07-01T01:20:23;12.50;99.90
50947;DHT22;36955;47.416;7.716;2022-07-01T01:22:49;12.50;99.90
50947;DHT22;36955;47.416;7.716;2022-07-01T01:25:16;12.50;99.90
50947;DHT22;36955;47.416;7.716;2022-07-01T01:27:42;12.60;99.90
50947;DHT22;36955;47.416;7.716;2022-07-01T01:30:10;12.60;99.90
50947;DHT22;36955;47.416;7.716;2022-07-01T01:32:36;12.60;99.90
50947;DHT22;36955;47.416;7.716;2022-07-01T01:35:03;12.60;99.90
50947;DHT22;36955;47.416;7.716;2022-07-01T01:37:30;12.60;99.90
50947;DHT22;36955;47.416;7.716;2022-07-01T01:39:56;12.50;99.90
50947;DHT22;36955;47.416;7.716;2022-07-01T01:42:22;12.50;99.90
50947;DHT22;36955;47.416;7.716;2022-07-01T01:44:48;12.40;99.90
50947;DHT22;36955;47.416;7.716;2022-07-01T01:47:14;12.50;99.90
50947;DHT22;36955;47.416;7.716;2022-07-01T01:49:40;12.40;99.90
50947;DHT22;36955;47.416;7.716;2022-07-01T01:52:06;12.40;99.90
50947;DHT22;36955;47.416;7.716;2022-07-01T01:54:32;12.30;99.90
50947;DHT22;36955;47.416;7.716;2022-07-01T01:56:58;12.30;99.90
50947;DHT22;36955;47.416;7.716;2022-07-01T01:59:25;12.30;99.90
50947;DHT22;36955;47.416;7.716;2022-07-01T02:01:51;12.30;99.90
50947;DHT22;36955;47.416;7.716;2022-07-01T02:04:17;12.30;99.90
50947;DHT22;36955;47.416;7.716;2022-07-01T02:06:43;12.30;99.90
50947;DHT22;36955;47.416;7.716;2022-07-01T02:09:09;12.30;99.90
50947;DHT22;36955;47.416;7.716;2022-07-01T02:11:35;12.30;99.90
50947;DHT22;36955;47.416;7.716;2022-07-01T02:14:01;12.30;99.90
50947;DHT22;36955;47.416;7.716;2022-07-01T02:16:28;12.20;99.90
50947;DHT22;36955;47.416;7.716;2022-07-01T02:18:54;12.30;99.90
50947;DHT22;36955;47.416;7.716;2022-07-01T02:21:21;12.40;99.90
50947;DHT22;36955;47.416;7.716;2022-07-01T02:23:47;12.40;99.90
50947;DHT22;36955;47.416;7.716;2022-07-01T02:26:13;12.40;99.90
50947;DHT22;36955;47.416;7.716;2022-07-01T02:28:39;12.40;99.90
50947;DHT22;36955;47.416;7.716;2022-07-01T02:31:05;12.40;99.90
50947;DHT22;36955;47.416;7.716;2022-07-01T02:33:32;12.40;99.90
50947;DHT22;36955;47.416;7.716;2022-07-01T02:35:58;12.40;99.90
50947;DHT22;36955;47.416;7.716;2022-07-01T02:38:24;12.30;99.90
50947;DHT22;36955;47.416;7.716;2022-07-01T02:40:50;12.30;99.90
50947;DHT22;36955;47.416;7.716;2022-07-01T02:43:16;12.30;99.90
50947;DHT22;36955;47.416;7.716;2022-07-01T02:45:42;12.30;99.90
50947;DHT22;36955;47.416;7.716;2022-07-01T02:48:08;12.30;99.90
50947;DHT22;36955;47.416;7.716;2022-07-01T02:50:34;12.40;99.90
50947;DHT22;36955;47.416;7.716;2022-07-01T02:53:01;12.40;99.90
50947;DHT22;36955;47.416;7.716;2022-07-01T02:55:27;12.40;99.90
50947;DHT22;36955;47.416;7.716;2022-07-01T02:57:53;12.50;99.90
50947;DHT22;36955;47.416;7.716;2022-07-01T03:00:20;12.40;99.90
50947;DHT22;36955;47.416;7.716;2022-07-01T03:02:46;12.40;99.90
50947;DHT22;36955;47.416;7.716;2022-07-01T03:05:12;12.50;99.90
50947;DHT22;36955;47.416;7.716;2022-07-01T03:07:39;12.50;99.90
50947;DHT22;36955;47.416;7.716;2022-07-01T03:10:06;12.40;99.90
50947;DHT22;36955;47.416;7.716;2022-07-01T03:12:33;12.40;99.90
50947;DHT22;36955;47.416;7.716;2022-07-01T03:15:04;12.40;99.90
50947;DHT22;36955;47.416;7.716;2022-07-01T03:17:32;12.40;99.90
50947;DHT22;36955;47.416;7.716;2022-07-01T03:19:59;12.30;99.90
50947;DHT22;36955;47.416;7.716;2022-07-01T03:22:27;12.30;99.90
50947;DHT22;36955;47.416;7.716;2022-07-01T03:24:54;12.30;99.90
50947;DHT22;36955;47.416;7.716;2022-07-01T03:27:21;12.30;99.90
50947;DHT22;36955;47.416;7.716;2022-07-01T03:29:48;12.20;99.90
50947;DHT22;36955;47.416;7.716;2022-07-01T03:32:14;12.20;99.90
50947;DHT22;36955;47.416;7.716;2022-07-01T03:34:50;12.20;99.90
50947;DHT22;36955;47.416;7.716;2022-07-01T03:37:18;12.30;99.90
50947;DHT22;36955;47.416;7.716;2022-07-01T03:39:45;12.30;99.90
50947;DHT22;36955;47.416;7.716;2022-07-01T03:42:11;12.40;99.90
50947;DHT22;36955;47.416;7.716;2022-07-01T03:44:37;12.40;99.90
50947;DHT22;36955;47.416;7.716;2022-07-01T03:47:05;12.50;99.90
50947;DHT22;36955;47.416;7.716;2022-07-01T03:49:34;12.50;99.90
50947;DHT22;36955;47.416;7.716;2022-07-01T03:52:04;12.50;99.90
50947;DHT22;36955;47.416;7.716;2022-07-01T03:54:30;12.50;99.90
50947;DHT22;36955;47.416;7.716;2022-07-01T03:56:57;12.50;99.90
50947;DHT22;36955;47.416;7.716;2022-07-01T03:59:24;12.50;99.90
50947;DHT22;36955;47.416;7.716;2022-07-01T04:01:50;12.50;99.90
50947;DHT22;36955;47.416;7.716;2022-07-01T04:04:16;12.50;99.90
50947;DHT22;36955;47.416;7.716;2022-07-01T04:06:43;12.50;99.90
50947;DHT22;36955;47.416;7.716;2022-07-01T04:09:10;12.50;99.90
50947;DHT22;36955;47.416;7.716;2022-07-01T04:11:37;12.60;99.90
50947;DHT22;36955;47.416;7.716;2022-07-01T04:14:03;12.60;99.90
50947;DHT22;36955;47.416;7.716;2022-07-01T04:16:30;12.70;99.90
50947;DHT22;36955;47.416;7.716;2022-07-01T04:18:56;12.70;99.90
50947;DHT22;36955;47.416;7.716;2022-07-01T04:21:23;12.70;99.90
50947;DHT22;36955;47.416;7.716;2022-07-01T04:23:49;12.80;99.90
50947;DHT22;36955;47.416;7.716;2022-07-01T04:26:15;12.80;99.90
50947;DHT22;36955;47.416;7.716;2022-07-01T04:28:41;12.80;99.90
50947;DHT22;36955;47.416;7.716;2022-07-01T04:31:07;12.80;99.90
50947;DHT22;36955;47.416;7.716;2022-07-01T04:33:33;12.90;99.90
50947;DHT22;36955;47.416;7.716;2022-07-01T04:35:59;12.90;99.90
50947;DHT22;36955;47.416;7.716;2022-07-01T04:38:25;12.80;99.90
50947;DHT22;36955;47.416;7.716;2022-07-01T04:40:51;12.70;99.90
50947;DHT22;36955;47.416;7.716;2022-07-01T04:43:17;12.60;99.90
50947;DHT22;36955;47.416;7.716;2022-07-01T04:45:43;12.60;99.90
50947;DHT22;36955;47.416;7.716;2022-07-01T04:48:09;12.60;99.90
50947;DHT22;36955;47.416;7.716;2022-07-01T04:50:35;12.60;99.90
50947;DHT22;36955;47.416;7.716;2022-07-01T04:53:02;12.60;99.90
50947;DHT22;36955;47.416;7.716;2022-07-01T04:55:28;12.60;99.90
50947;DHT22;36955;47.416;7.716;2022-07-01T04:57:54;12.60;99.90
50947;DHT22;36955;47.416;7.716;2022-07-01T05:00:20;12.60;99.90
50947;DHT22;36955;47.416;7.716;2022-07-01T05:02:46;12.60;99.90
50947;DHT22;36955;47.416;7.716;2022-07-01T05:05:12;12.60;99.90
50947;DHT22;36955;47.416;7.716;2022-07-01T05:07:38;12.60;99.90
50947;DHT22;36955;47.416;7.716;2022-07-01T05:10:04;12.60;99.90
50947;DHT22;36955;47.416;7.716;2022-07-01T05:12:30;12.60;99.90
50947;DHT22;36955;47.416;7.716;2022-07-01T05:14:56;12.50;99.90
50947;DHT22;36955;47.416;7.716;2022-07-01T05:17:22;12.50;99.90
50947;DHT22;36955;47.416;7.716;2022-07-01T05:19:48;12.60;99.90
50947;DHT22;36955;47.416;7.716;2022-07-01T05:22:14;12.60;99.90
50947;DHT22;36955;47.416;7.716;2022-07-01T05:24:40;12.60;99.90
50947;DHT22;36955;47.416;7.716;2022-07-01T05:27:06;12.60;99.90
50947;DHT22;36955;47.416;7.716;2022-07-01T05:29:32;12.60;99.90
50947;DHT22;36955;47.416;7.716;2022-07-01T05:31:58;12.60;99.90
50947;DHT22;36955;47.416;7.716;2022-07-01T05:34:24;12.50;99.90
50947;DHT22;36955;47.416;7.716;2022-07-01T05:36:51;12.40;99.90
50947;DHT22;36955;47.416;7.716;2022-07-01T05:39:17;12.40;99.90
50947;DHT22;36955;47.416;7.716;2022-07-01T05:41:43;12.30;99.90
50947;DHT22;36955;47.416;7.716;2022-07-01T05:44:09;12.40;99.90
50947;DHT22;36955;47.416;7.716;2022-07-01T05:46:35;12.40;99.90
50947;DHT22;36955;47.416;7.716;2022-07-01T05:49:01;12.50;99.90
50947;DHT22;36955;47.416;7.716;2022-07-01T05:51:27;12.60;99.90
50947;DHT22;36955;47.416;7.716;2022-07-01T05:53:53;12.50;99.90
50947;DHT22;36955;47.416;7.716;2022-07-01T05:56:19;12.40;99.90
50947;DHT22;36955;47.416;7.716;2022-07-01T05:58:46;12.40;99.90
50947;DHT22;36955;47.416;7.716;2022-07-01T06:01:12;12.50;99.90
50947;DHT22;36955;47.416;7.716;2022-07-01T06:03:38;12.50;99.90
50947;DHT22;36955;47.416;7.716;2022-07-01T06:06:04;12.50;99.90
50947;DHT22;36955;47.416;7.716;2022-07-01T06:08:30;12.50;99.90
50947;DHT22;36955;47.416;7.716;2022-07-01T06:10:56;12.60;99.90
50947;DHT22;36955;47.416;7.716;2022-07-01T06:13:22;12.60;99.90
50947;DHT22;36955;47.416;7.716;2022-07-01T06:15:48;12.70;99.90
50947;DHT22;36955;47.416;7.716;2022-07-01T06:18:14;12.70;99.90
50947;DHT22;36955;47.416;7.716;2022-07-01T06:20:40;12.80;99.90
50947;DHT22;36955;47.416;7.716;2022-07-01T06:23:06;12.80;99.90
50947;DHT22;36955;47.416;7.716;2022-07-01T06:25:32;12.70;99.90
50947;DHT22;36955;47.416;7.716;2022-07-01T06:27:58;12.70;99.90
50947;DHT22;36955;47.416;7.716;2022-07-01T06:30:24;12.60;99.90
50947;DHT22;36955;47.416;7.716;2022-07-01T06:32:50;12.60;99.90
50947;DHT22;36955;47.416;7.716;2022-07-01T06:35:16;12.50;99.90
50947;DHT22;36955;47.416;7.716;2022-07-01T06:37:42;12.60;99.90
50947;DHT22;36955;47.416;7.716;2022-07-01T06:40:08;12.60;99.90
50947;DHT22;36955;47.416;7.716;2022-07-01T06:42:35;12.60;99.90
50947;DHT22;36955;47.416;7.716;2022-07-01T06:45:01;12.60;99.90
50947;DHT22;36955;47.416;7.716;2022-07-01T06:47:27;12.60;99.90
50947;DHT22;36955;47.416;7.716;2022-07-01T06:49:53;12.60;99.90
50947;DHT22;36955;47.416;7.716;2022-07-01T06:52:19;12.60;99.90
50947;DHT22;36955;47.416;7.716;2022-07-01T06:54:45;12.50;99.90
50947;DHT22;36955;47.416;7.716;2022-07-01T06:57:12;12.50;99.90
50947;DHT22;36955;47.416;7.716;2022-07-01T06:59:38;12.50;99.90
50947;DHT22;36955;47.416;7.716;2022-07-01T07:02:04;12.60;99.90
50947;DHT22;36955;47.416;7.716;2022-07-01T07:04:30;12.60;99.90
50947;DHT22;36955;47.416;7.716;2022-07-01T07:06:56;12.70;99.90
50947;DHT22;36955;47.416;7.716;2022-07-01T07:09:22;12.70;99.90
50947;DHT22;36955;47.416;7.716;2022-07-01T07:11:48;12.70;99.90
50947;DHT22;36955;47.416;7.716;2022-07-01T07:14:14;12.60;99.90
50947;DHT22;36955;47.416;7.716;2022-07-01T07:16:40;12.60;99.90
50947;DHT22;36955;47.416;7.716;2022-07-01T07:19:06;12.60;99.90
50947;DHT22;36955;47.416;7.716;2022-07-01T07:21:32;12.60;99.90
50947;DHT22;36955;47.416;7.716;2022-07-01T07:23:58;12.60;99.90
50947;DHT22;36955;47.416;7.716;2022-07-01T07:26:24;12.50;99.90
50947;DHT22;36955;47.416;7.716;2022-07-01T07:28:50;12.60;99.90
50947;DHT22;36955;47.416;7.716;2022-07-01T07:31:16;12.60;99.90
50947;DHT22;36955;47.416;7.716;2022-07-01T07:33:42;12.60;99.90
50947;DHT22;36955;47.416;7.716;2022-07-01T07:36:08;12.60;99.90
50947;DHT22;36955;47.416;7.716;2022-07-01T07:38:37;12.70;99.90
50947;DHT22;36955;47.416;7.716;2022-07-01T07:41:03;12.70;99.90
50947;DHT22;36955;47.416;7.716;2022-07-01T07:43:29;12.70;99.90
50947;DHT22;36955;47.416;7.716;2022-07-01T07:45:55;12.70;99.90
50947;DHT22;36955;47.416;7.716;2022-07-01T07:48:21;12.60;99.90
50947;DHT22;36955;47.416;7.716;2022-07-01T07:50:47;12.60;99.90
50947;DHT22;36955;47.416;7.716;2022-07-01T07:53:13;12.60;99.90
50947;DHT22;36955;47.416;7.716;2022-07-01T07:55:39;12.60;99.90
50947;DHT22;36955;47.416;7.716;2022-07-01T07:58:06;12.60;99.90
50947;DHT22;36955;47.416;7.716;2022-07-01T08:00:32;12.60;99.90
50947;DHT22;36955;47.416;7.716;2022-07-01T08:02:58;12.60;99.90
50947;DHT22;36955;47.416;7.716;2022-07-01T08:05:24;12.50;99.90
50947;DHT22;36955;47.416;7.716;2022-07-01T08:07:50;12.50;99.90
50947;DHT22;36955;47.416;7.716;2022-07-01T08:10:16;12.50;99.90
50947;DHT22;36955;47.416;7.716;2022-07-01T08:12:43;12.50;99.90
50947;DHT22;36955;47.416;7.716;2022-07-01T08:15:09;12.40;99.90
50947;DHT22;36955;47.416;7.716;2022-07-01T08:17:35;12.40;99.90
50947;DHT22;36955;47.416;7.716;2022-07-01T08:20:01;12.50;99.90
50947;DHT22;36955;47.416;7.716;2022-07-01T08:22:28;12.50;99.90
50947;DHT22;36955;47.416;7.716;2022-07-01T08:24:54;12.70;99.90
50947;DHT22;36955;47.416;7.716;2022-07-01T08:27:20;12.80;99.90
50947;DHT22;36955;47.416;7.716;2022-07-01T08:29:46;12.90;99.90
50947;DHT22;36955;47.416;7.716;2022-07-01T08:32:12;13.00;99.90
50947;DHT22;36955;47.416;7.716;2022-07-01T08:34:38;13.00;99.90
50947;DHT22;36955;47.416;7.716;2022-07-01T08:37:04;13.10;99.90
50947;DHT22;36955;47.416;7.716;2022-07-01T08:39:30;13.10;99.90
50947;DHT22;36955;47.416;7.716;2022-07-01T08:41:57;13.10;99.90
50947;DHT22;36955;47.416;7.716;2022-07-01T08:44:23;13.20;99.90
50947;DHT22;36955;47.416;7.716;2022-07-01T08:46:49;13.20;99.90
50947;DHT22;36955;47.416;7.716;2022-07-01T08:49:16;13.30;99.90
50947;DHT22;36955;47.416;7.716;2022-07-01T08:51:42;13.30;99.90
50947;DHT22;36955;47.416;7.716;2022-07-01T08:54:08;13.40;99.90
50947;DHT22;36955;47.416;7.716;2022-07-01T08:56:34;13.50;99.90
50947;DHT22;36955;47.416;7.716;2022-07-01T08:59:00;13.50;99.90
50947;DHT22;36955;47.416;7.716;2022-07-01T09:01:26;13.40;99.90
50947;DHT22;36955;47.416;7.716;2022-07-01T09:03:55;13.30;99.90
50947;DHT22;36955;47.416;7.716;2022-07-01T09:06:26;13.20;99.90
50947;DHT22;36955;47.416;7.716;2022-07-01T09:08:53;13.10;99.90
50947;DHT22;36955;47.416;7.716;2022-07-01T09:11:25;13.00;99.90
50947;DHT22;36955;47.416;7.716;2022-07-01T09:14:12;13.00;99.90
50947;DHT22;36955;47.416;7.716;2022-07-01T09:16:42;13.10;99.90
50947;DHT22;36955;47.416;7.716;2022-07-01T09:19:09;13.10;99.90
50947;DHT22;36955;47.416;7.716;2022-07-01T09:21:35;13.00;99.90
50947;DHT22;36955;47.416;7.716;2022-07-01T09:24:22;13.00;99.90
50947;DHT22;36955;47.416;7.716;2022-07-01T09:26:59;13.00;99.90
50947;DHT22;36955;47.416;7.716;2022-07-01T09:29:32;13.00;99.90
50947;DHT22;36955;47.416;7.716;2022-07-01T09:32:01;13.00;99.90
50947;DHT22;36955;47.416;7.716;2022-07-01T09:34:32;13.00;99.90
50947;DHT22;36955;47.416;7.716;2022-07-01T09:36:59;13.10;99.90
50947;DHT22;36955;47.416;7.716;2022-07-01T09:39:25;13.20;99.90
50947;DHT22;36955;47.416;7.716;2022-07-01T09:41:55;13.40;99.90
50947;DHT22;36955;47.416;7.716;2022-07-01T09:44:21;13.40;99.90
50947;DHT22;36955;47.416;7.716;2022-07-01T09:46:54;13.50;99.90
50947;DHT22;36955;47.416;7.716;2022-07-01T09:49:21;13.70;99.90
50947;DHT22;36955;47.416;7.716;2022-07-01T09:51:49;13.90;99.90
50947;DHT22;36955;47.416;7.716;2022-07-01T09:54:16;14.00;99.90
50947;DHT22;36955;47.416;7.716;2022-07-01T09:56:42;14.10;99.90
50947;DHT22;36955;47.416;7.716;2022-07-01T09:59:08;14.10;99.90
50947;DHT22;36955;47.416;7.716;2022-07-01T10:01:37;14.20;99.90
50947;DHT22;36955;47.416;7.716;2022-07-01T10:04:07;14.20;99.90
50947;DHT22;36955;47.416;7.716;2022-07-01T10:09:06;14.20;99.90
50947;DHT22;36955;47.416;7.716;2022-07-01T10:14:10;14.30;99.90
50947;DHT22;36955;47.416;7.716;2022-07-01T10:16:38;14.40;99.90
50947;DHT22;36955;47.416;7.716;2022-07-01T10:21:48;14.40;99.90
50947;DHT22;36955;47.416;7.716;2022-07-01T10:24:16;14.50;99.90
50947;DHT22;36955;47.416;7.716;2022-07-01T10:26:43;14.60;99.90
50947;DHT22;36955;47.416;7.716;2022-07-01T10:34:43;15.00;99.90
50947;DHT22;36955;47.416;7.716;2022-07-01T10:37:11;15.00;99.90
50947;DHT22;36955;47.416;7.716;2022-07-01T10:39:59;15.10;99.90
50947;DHT22;36955;47.416;7.716;2022-07-01T10:42:30;15.00;99.90
50947;DHT22;36955;47.416;7.716;2022-07-01T10:45:09;15.00;99.90
50947;DHT22;36955;47.416;7.716;2022-07-01T10:47:38;15.00;99.90
50947;DHT22;36955;47.416;7.716;2022-07-01T10:50:09;14.90;99.90
50947;DHT22;36955;47.416;7.716;2022-07-01T10:52:35;15.00;99.90
50947;DHT22;36955;47.416;7.716;2022-07-01T10:55:04;15.00;99.90
50947;DHT22;36955;47.416;7.716;2022-07-01T10:57:32;15.00;99.90
50947;DHT22;36955;47.416;7.716;2022-07-01T11:02:32;15.00;99.90
50947;DHT22;36955;47.416;7.716;2022-07-01T11:05:12;15.00;99.90
50947;DHT22;36955;47.416;7.716;2022-07-01T11:07:41;15.00;99.90
50947;DHT22;36955;47.416;7.716;2022-07-01T11:10:09;15.10;99.90
50947;DHT22;36955;47.416;7.716;2022-07-01T11:12:35;15.00;99.90
50947;DHT22;36955;47.416;7.716;2022-07-01T11:15:03;15.00;99.90
50947;DHT22;36955;47.416;7.716;2022-07-01T11:17:29;15.10;99.90
50947;DHT22;36955;47.416;7.716;2022-07-01T11:19:57;15.10;99.90
50947;DHT22;36955;47.416;7.716;2022-07-01T11:22:25;15.20;99.90
50947;DHT22;36955;47.416;7.716;2022-07-01T11:24:59;15.30;99.90
50947;DHT22;36955;47.416;7.716;2022-07-01T11:27:26;15.40;99.90
50947;DHT22;36955;47.416;7.716;2022-07-01T11:29:54;15.50;99.90
50947;DHT22;36955;47.416;7.716;2022-07-01T11:32:41;15.70;99.90
50947;DHT22;36955;47.416;7.716;2022-07-01T11:35:07;15.90;99.90
50947;DHT22;36955;47.416;7.716;2022-07-01T11:37:34;16.00;99.90
50947;DHT22;36955;47.416;7.716;2022-07-01T11:40:12;16.00;99.90
50947;DHT22;36955;47.416;7.716;2022-07-01T11:42:38;16.10;99.90
50947;DHT22;36955;47.416;7.716;2022-07-01T11:45:05;16.10;99.90
50947;DHT22;36955;47.416;7.716;2022-07-01T11:47:32;16.00;99.90
50947;DHT22;36955;47.416;7.716;2022-07-01T11:49:59;15.90;99.90
50947;DHT22;36955;47.416;7.716;2022-07-01T11:52:25;15.80;99.90
50947;DHT22;36955;47.416;7.716;2022-07-01T11:54:56;15.80;99.90
50947;DHT22;36955;47.416;7.716;2022-07-01T11:57:24;15.70;99.90
50947;DHT22;36955;47.416;7.716;2022-07-01T11:59:53;15.70;99.90
50947;DHT22;36955;47.416;7.716;2022-07-01T12:02:22;15.70;99.90
50947;DHT22;36955;47.416;7.716;2022-07-01T12:04:49;15.80;99.90
50947;DHT22;36955;47.416;7.716;2022-07-01T12:07:18;15.90;99.90
50947;DHT22;36955;47.416;7.716;2022-07-01T12:09:45;16.00;99.90
50947;DHT22;36955;47.416;7.716;2022-07-01T12:12:18;16.10;99.90
50947;DHT22;36955;47.416;7.716;2022-07-01T12:14:57;16.10;99.90
50947;DHT22;36955;47.416;7.716;2022-07-01T12:17:24;16.20;99.90
50947;DHT22;36955;47.416;7.716;2022-07-01T12:19:51;16.30;99.90
50947;DHT22;36955;47.416;7.716;2022-07-01T12:22:23;16.30;99.90
50947;DHT22;36955;47.416;7.716;2022-07-01T12:24:51;16.40;99.90
50947;DHT22;36955;47.416;7.716;2022-07-01T12:27:20;16.50;99.90
50947;DHT22;36955;47.416;7.716;2022-07-01T12:32:15;16.90;99.90
50947;DHT22;36955;47.416;7.716;2022-07-01T12:37:15;17.10;99.90
50947;DHT22;36955;47.416;7.716;2022-07-01T12:39:47;17.20;99.90
50947;DHT22;36955;47.416;7.716;2022-07-01T12:42:21;17.40;99.90
50947;DHT22;36955;47.416;7.716;2022-07-01T12:44:47;17.60;99.90
50947;DHT22;36955;47.416;7.716;2022-07-01T12:47:34;17.80;99.90
50947;DHT22;36955;47.416;7.716;2022-07-01T12:52:39;17.80;99.90
50947;DHT22;36955;47.416;7.716;2022-07-01T12:55:20;17.80;99.90
50947;DHT22;36955;47.416;7.716;2022-07-01T12:57:48;17.80;99.90
50947;DHT22;36955;47.416;7.716;2022-07-01T13:00:16;17.70;99.90
50947;DHT22;36955;47.416;7.716;2022-07-01T13:02:42;17.60;99.90
50947;DHT22;36955;47.416;7.716;2022-07-01T13:05:09;17.60;99.90
50947;DHT22;36955;47.416;7.716;2022-07-01T13:07:35;17.70;99.90
50947;DHT22;36955;47.416;7.716;2022-07-01T13:10:01;17.90;99.90
50947;DHT22;36955;47.416;7.716;2022-07-01T13:12:27;18.20;99.90
50947;DHT22;36955;47.416;7.716;2022-07-01T13:14:53;18.50;99.90
50947;DHT22;36955;47.416;7.716;2022-07-01T13:17:19;18.80;99.90
50947;DHT22;36955;47.416;7.716;2022-07-01T13:19:45;19.10;99.90
50947;DHT22;36955;47.416;7.716;2022-07-01T13:22:11;19.40;99.90
50947;DHT22;36955;47.416;7.716;2022-07-01T13:24:37;19.50;99.90
50947;DHT22;36955;47.416;7.716;2022-07-01T13:27:03;19.50;99.90
50947;DHT22;36955;47.416;7.716;2022-07-01T13:29:30;19.30;99.90
50947;DHT22;36955;47.416;7.716;2022-07-01T13:31:56;19.20;99.90
50947;DHT22;36955;47.416;7.716;2022-07-01T13:34:22;19.40;99.90
50947;DHT22;36955;47.416;7.716;2022-07-01T13:36:48;19.80;99.90
50947;DHT22;36955;47.416;7.716;2022-07-01T13:39:14;20.00;99.90
50947;DHT22;36955;47.416;7.716;2022-07-01T13:41:40;20.20;99.90
50947;DHT22;36955;47.416;7.716;2022-07-01T13:44:06;20.50;99.90
50947;DHT22;36955;47.416;7.716;2022-07-01T13:46:32;20.70;99.90
50947;DHT22;36955;47.416;7.716;2022-07-01T13:48:58;20.70;99.90
50947;DHT22;36955;47.416;7.716;2022-07-01T13:51:24;20.90;99.90
50947;DHT22;36955;47.416;7.716;2022-07-01T13:53:50;21.10;99.90
50947;DHT22;36955;47.416;7.716;2022-07-01T13:56:16;21.10;99.90
50947;DHT22;36955;47.416;7.716;2022-07-01T13:58:42;21.20;99.90
50947;DHT22;36955;47.416;7.716;2022-07-01T14:01:08;21.10;99.90
50947;DHT22;36955;47.416;7.716;2022-07-01T14:03:35;21.00;99.90
50947;DHT22;36955;47.416;7.716;2022-07-01T14:06:01;20.80;99.90
50947;DHT22;36955;47.416;7.716;2022-07-01T14:08:27;20.70;99.90
50947;DHT22;36955;47.416;7.716;2022-07-01T14:10:54;20.70;99.90
50947;DHT22;36955;47.416;7.716;2022-07-01T14:13:20;20.80;99.90
50947;DHT22;36955;47.416;7.716;2022-07-01T14:15:46;20.90;99.90
50947;DHT22;36955;47.416;7.716;2022-07-01T14:18:12;20.90;99.90
50947;DHT22;36955;47.416;7.716;2022-07-01T14:20:39;21.10;99.90
50947;DHT22;36955;47.416;7.716;2022-07-01T14:23:05;21.40;99.90
50947;DHT22;36955;47.416;7.716;2022-07-01T14:25:31;21.50;99.90
50947;DHT22;36955;47.416;7.716;2022-07-01T14:27:58;21.50;99.90
50947;DHT22;36955;47.416;7.716;2022-07-01T14:30:24;21.40;99.90
50947;DHT22;36955;47.416;7.716;2022-07-01T14:32:50;21.20;99.90
50947;DHT22;36955;47.416;7.716;2022-07-01T14:35:16;20.90;99.90
50947;DHT22;36955;47.416;7.716;2022-07-01T14:37:42;20.90;99.90
50947;DHT22;36955;47.416;7.716;2022-07-01T14:40:09;21.00;99.90
50947;DHT22;36955;47.416;7.716;2022-07-01T14:42:35;21.20;99.90
50947;DHT22;36955;47.416;7.716;2022-07-01T14:45:02;21.20;99.90
50947;DHT22;36955;47.416;7.716;2022-07-01T14:47:28;21.10;99.90
50947;DHT22;36955;47.416;7.716;2022-07-01T14:49:55;20.90;99.90
50947;DHT22;36955;47.416;7.716;2022-07-01T14:52:24;20.70;99.90
50947;DHT22;36955;47.416;7.716;2022-07-01T14:54:50;21.00;99.90
50947;DHT22;36955;47.416;7.716;2022-07-01T14:57:17;21.30;99.90
50947;DHT22;36955;47.416;7.716;2022-07-01T14:59:43;21.50;99.90
50947;DHT22;36955;47.416;7.716;2022-07-01T15:02:09;21.70;99.90
50947;DHT22;36955;47.416;7.716;2022-07-01T15:04:35;22.00;99.90
50947;DHT22;36955;47.416;7.716;2022-07-01T15:07:01;22.50;99.90
50947;DHT22;36955;47.416;7.716;2022-07-01T15:09:27;22.70;99.90
50947;DHT22;36955;47.416;7.716;2022-07-01T15:11:53;22.90;99.90
50947;DHT22;36955;47.416;7.716;2022-07-01T15:14:19;22.30;99.90
50947;DHT22;36955;47.416;7.716;2022-07-01T15:16:46;21.50;99.90
50947;DHT22;36955;47.416;7.716;2022-07-01T15:19:12;21.00;99.90
50947;DHT22;36955;47.416;7.716;2022-07-01T15:21:38;20.70;99.90
50947;DHT22;36955;47.416;7.716;2022-07-01T15:24:05;20.30;99.90
50947;DHT22;36955;47.416;7.716;2022-07-01T15:26:31;20.10;99.90
50947;DHT22;36955;47.416;7.716;2022-07-01T15:28:57;19.90;99.90
50947;DHT22;36955;47.416;7.716;2022-07-01T15:31:23;19.80;99.90
50947;DHT22;36955;47.416;7.716;2022-07-01T15:33:49;19.80;99.90
50947;DHT22;36955;47.416;7.716;2022-07-01T15:36:15;20.00;99.90
50947;DHT22;36955;47.416;7.716;2022-07-01T15:38:41;20.40;99.90
50947;DHT22;36955;47.416;7.716;2022-07-01T15:41:07;20.30;99.90
50947;DHT22;36955;47.416;7.716;2022-07-01T15:43:35;20.00;99.90
50947;DHT22;36955;47.416;7.716;2022-07-01T15:46:02;19.70;99.90
50947;DHT22;36955;47.416;7.716;2022-07-01T15:48:28;19.50;99.90
50947;DHT22;36955;47.416;7.716;2022-07-01T15:50:54;19.40;99.90
50947;DHT22;36955;47.416;7.716;2022-07-01T15:53:20;19.70;99.90